sensor_id;sensor_type;location;lat;lon;timestamp;P1;durP1;ratioP1;P2;durP2;ratioP2
52035;SDS011;38046;49.448;32.074;2022-12-18T00:01:04;4.32;;;3.65;;
52035;SDS011;38046;49.448;32.074;2022-12-18T00:03:38;4.05;;;3.33;;
52035;SDS011;38046;49.448;32.074;2022-12-18T00:06:03;4.03;;;3.55;;
52035;SDS011;38046;49.448;32.074;2022-12-18T00:08:29;3.33;;;3.03;;
52035;SDS011;38046;49.448;32.074;2022-12-18T00:10:55;4.50;;;3.53;;
52035;SDS011;38046;49.448;32.074;2022-12-18T00:13:20;4.03;;;3.55;;
52035;SDS011;38046;49.448;32.074;2022-12-18T00:15:46;4.32;;;3.83;;
52035;SDS011;38046;49.448;32.074;2022-12-18T00:18:11;4.57;;;3.90;;
52035;SDS011;38046;49.448;32.074;2022-12-18T00:20:38;5.00;;;4.13;;
52035;SDS011;38046;49.448;32.074;2022-12-18T00:23:05;5.22;;;3.85;;
52035;SDS011;38046;49.448;32.074;2022-12-18T00:25:34;5.43;;;4.65;;
52035;SDS011;38046;49.448;32.074;2022-12-18T00:28:01;5.03;;;4.35;;
52035;SDS011;38046;49.448;32.074;2022-12-18T00:30:28;5.32;;;4.43;;
52035;SDS011;38046;49.448;32.074;2022-12-18T00:32:53;5.32;;;4.82;;
52035;SDS011;38046;49.448;32.074;2022-12-18T00:35:19;5.75;;;4.75;;
52035;SDS011;38046;49.448;32.074;2022-12-18T00:37:45;6.53;;;5.07;;
52035;SDS011;38046;49.448;32.074;2022-12-18T00:40:11;6.93;;;4.88;;
52035;SDS011;38046;49.448;32.074;2022-12-18T00:42:36;6.82;;;4.70;;
52035;SDS011;38046;49.448;32.074;2022-12-18T00:45:21;6.65;;;4.95;;
52035;SDS011;38046;49.448;32.074;2022-12-18T00:47:51;7.10;;;5.37;;
52035;SDS011;38046;49.448;32.074;2022-12-18T00:50:17;6.35;;;5.22;;
52035;SDS011;38046;49.448;32.074;2022-12-18T00:52:43;6.03;;;5.38;;
52035;SDS011;38046;49.448;32.074;2022-12-18T00:55:09;6.90;;;5.28;;
52035;SDS011;38046;49.448;32.074;2022-12-18T00:57:35;8.02;;;5.57;;
52035;SDS011;38046;49.448;32.074;2022-12-18T01:00:01;7.20;;;5.55;;
52035;SDS011;38046;49.448;32.074;2022-12-18T01:02:27;7.82;;;5.85;;
52035;SDS011;38046;49.448;32.074;2022-12-18T01:04:53;7.63;;;5.72;;
52035;SDS011;38046;49.448;32.074;2022-12-18T01:07:18;8.35;;;5.97;;
52035;SDS011;38046;49.448;32.074;2022-12-18T01:09:44;6.63;;;5.88;;
52035;SDS011;38046;49.448;32.074;2022-12-18T01:12:10;7.43;;;5.82;;
52035;SDS011;38046;49.448;32.074;2022-12-18T01:14:36;7.78;;;6.10;;
52035;SDS011;38046;49.448;32.074;2022-12-18T01:17:02;8.40;;;6.72;;
52035;SDS011;38046;49.448;32.074;2022-12-18T01:19:28;10.45;;;6.97;;
52035;SDS011;38046;49.448;32.074;2022-12-18T01:21:54;8.60;;;7.28;;
52035;SDS011;38046;49.448;32.074;2022-12-18T01:24:20;8.75;;;7.25;;
52035;SDS011;38046;49.448;32.074;2022-12-18T01:26:45;9.77;;;7.63;;
52035;SDS011;38046;49.448;32.074;2022-12-18T01:29:11;9.65;;;7.65;;
52035;SDS011;38046;49.448;32.074;2022-12-18T01:31:37;9.90;;;7.40;;
52035;SDS011;38046;49.448;32.074;2022-12-18T01:34:03;10.85;;;7.63;;
52035;SDS011;38046;49.448;32.074;2022-12-18T01:36:33;10.90;;;7.72;;
52035;SDS011;38046;49.448;32.074;2022-12-18T01:39:01;11.10;;;7.57;;
52035;SDS011;38046;49.448;32.074;2022-12-18T01:41:31;10.57;;;7.90;;
52035;SDS011;38046;49.448;32.074;2022-12-18T01:47:16;8.75;;;7.35;;
52035;SDS011;38046;49.448;32.074;2022-12-18T01:50:05;11.07;;;8.25;;
52035;SDS011;38046;49.448;32.074;2022-12-18T01:52:36;10.35;;;8.10;;
52035;SDS011;38046;49.448;32.074;2022-12-18T01:55:03;10.38;;;8.02;;
52035;SDS011;38046;49.448;32.074;2022-12-18T01:57:31;10.73;;;8.88;;
52035;SDS011;38046;49.448;32.074;2022-12-18T01:59:59;10.43;;;7.15;;
52035;SDS011;38046;49.448;32.074;2022-12-18T02:02:29;12.00;;;8.75;;
52035;SDS011;38046;49.448;32.074;2022-12-18T02:04:56;10.75;;;8.05;;
52035;SDS011;38046;49.448;32.074;2022-12-18T02:18:49;11.27;;;8.13;;
52035;SDS011;38046;49.448;32.074;2022-12-18T02:21:31;9.80;;;7.47;;
52035;SDS011;38046;49.448;32.074;2022-12-18T02:26:53;10.25;;;7.97;;
52035;SDS011;38046;49.448;32.074;2022-12-18T02:29:23;10.93;;;8.35;;
52035;SDS011;38046;49.448;32.074;2022-12-18T02:31:54;11.48;;;8.32;;
52035;SDS011;38046;49.448;32.074;2022-12-18T02:34:26;11.43;;;7.67;;
52035;SDS011;38046;49.448;32.074;2022-12-18T02:36:55;10.43;;;7.82;;
52035;SDS011;38046;49.448;32.074;2022-12-18T02:39:22;9.48;;;7.35;;
52035;SDS011;38046;49.448;32.074;2022-12-18T02:41:50;10.38;;;8.45;;
52035;SDS011;38046;49.448;32.074;2022-12-18T02:44:16;9.75;;;8.00;;
52035;SDS011;38046;49.448;32.074;2022-12-18T03:00:23;10.18;;;8.43;;
52035;SDS011;38046;49.448;32.074;2022-12-18T03:05:55;12.40;;;8.88;;
52035;SDS011;38046;49.448;32.074;2022-12-18T03:08:26;11.88;;;9.07;;
52035;SDS011;38046;49.448;32.074;2022-12-18T03:10:55;13.55;;;9.55;;
52035;SDS011;38046;49.448;32.074;2022-12-18T03:13:27;12.27;;;8.82;;
52035;SDS011;38046;49.448;32.074;2022-12-18T03:15:59;13.10;;;9.50;;
52035;SDS011;38046;49.448;32.074;2022-12-18T03:18:30;15.07;;;10.15;;
52035;SDS011;38046;49.448;32.074;2022-12-18T03:21:19;13.95;;;10.20;;
52035;SDS011;38046;49.448;32.074;2022-12-18T03:23:49;11.88;;;9.15;;
52035;SDS011;38046;49.448;32.074;2022-12-18T03:26:19;14.50;;;10.38;;
52035;SDS011;38046;49.448;32.074;2022-12-18T03:28:47;13.90;;;10.35;;
52035;SDS011;38046;49.448;32.074;2022-12-18T03:31:16;15.10;;;9.98;;
52035;SDS011;38046;49.448;32.074;2022-12-18T03:33:54;14.70;;;10.25;;
52035;SDS011;38046;49.448;32.074;2022-12-18T03:36:23;13.90;;;9.80;;
52035;SDS011;38046;49.448;32.074;2022-12-18T03:38:49;13.00;;;9.80;;
52035;SDS011;38046;49.448;32.074;2022-12-18T03:44:06;14.35;;;10.20;;
52035;SDS011;38046;49.448;32.074;2022-12-18T03:49:28;14.75;;;11.20;;
52035;SDS011;38046;49.448;32.074;2022-12-18T03:52:09;11.88;;;9.00;;
52035;SDS011;38046;49.448;32.074;2022-12-18T03:54:39;14.73;;;10.45;;
52035;SDS011;38046;49.448;32.074;2022-12-18T03:57:09;14.70;;;10.60;;
52035;SDS011;38046;49.448;32.074;2022-12-18T03:59:38;14.80;;;11.10;;
52035;SDS011;38046;49.448;32.074;2022-12-18T04:02:06;14.48;;;10.88;;
52035;SDS011;38046;49.448;32.074;2022-12-18T04:41:16;18.10;;;12.27;;
52035;SDS011;38046;49.448;32.074;2022-12-18T04:43:42;18.55;;;13.38;;
52035;SDS011;38046;49.448;32.074;2022-12-18T04:46:08;18.92;;;13.80;;
52035;SDS011;38046;49.448;32.074;2022-12-18T04:48:33;17.73;;;12.85;;
52035;SDS011;38046;49.448;32.074;2022-12-18T04:51:00;20.88;;;14.63;;
52035;SDS011;38046;49.448;32.074;2022-12-18T04:53:26;18.20;;;13.10;;
52035;SDS011;38046;49.448;32.074;2022-12-18T04:56:01;17.85;;;13.00;;
52035;SDS011;38046;49.448;32.074;2022-12-18T04:58:39;18.35;;;13.23;;
52035;SDS011;38046;49.448;32.074;2022-12-18T05:01:05;17.42;;;12.88;;
52035;SDS011;38046;49.448;32.074;2022-12-18T05:03:32;18.13;;;12.73;;
52035;SDS011;38046;49.448;32.074;2022-12-18T05:05:58;16.58;;;12.43;;
52035;SDS011;38046;49.448;32.074;2022-12-18T05:08:24;19.90;;;13.30;;
52035;SDS011;38046;49.448;32.074;2022-12-18T05:10:57;19.10;;;12.68;;
52035;SDS011;38046;49.448;32.074;2022-12-18T05:13:31;21.88;;;13.90;;
52035;SDS011;38046;49.448;32.074;2022-12-18T05:15:57;22.08;;;13.32;;
52035;SDS011;38046;49.448;32.074;2022-12-18T05:18:23;19.75;;;14.00;;
52035;SDS011;38046;49.448;32.074;2022-12-18T05:20:50;21.42;;;15.10;;
52035;SDS011;38046;49.448;32.074;2022-12-18T05:23:16;17.27;;;12.98;;
52035;SDS011;38046;49.448;32.074;2022-12-18T05:25:42;18.60;;;12.32;;
52035;SDS011;38046;49.448;32.074;2022-12-18T05:28:15;18.23;;;13.07;;
52035;SDS011;38046;49.448;32.074;2022-12-18T05:30:40;18.73;;;12.60;;
52035;SDS011;38046;49.448;32.074;2022-12-18T05:33:06;16.85;;;12.70;;
52035;SDS011;38046;49.448;32.074;2022-12-18T05:35:32;21.85;;;14.13;;
52035;SDS011;38046;49.448;32.074;2022-12-18T05:37:57;17.58;;;12.18;;
52035;SDS011;38046;49.448;32.074;2022-12-18T05:40:23;18.10;;;12.55;;
52035;SDS011;38046;49.448;32.074;2022-12-18T05:42:48;17.92;;;12.52;;
52035;SDS011;38046;49.448;32.074;2022-12-18T05:45:14;20.77;;;13.35;;
52035;SDS011;38046;49.448;32.074;2022-12-18T05:47:40;19.73;;;13.40;;
52035;SDS011;38046;49.448;32.074;2022-12-18T05:50:05;20.45;;;14.57;;
52035;SDS011;38046;49.448;32.074;2022-12-18T05:52:32;19.38;;;12.80;;
52035;SDS011;38046;49.448;32.074;2022-12-18T05:54:57;18.42;;;13.07;;
52035;SDS011;38046;49.448;32.074;2022-12-18T05:57:24;17.15;;;12.40;;
52035;SDS011;38046;49.448;32.074;2022-12-18T05:59:49;16.98;;;12.38;;
52035;SDS011;38046;49.448;32.074;2022-12-18T06:02:15;15.82;;;11.68;;
52035;SDS011;38046;49.448;32.074;2022-12-18T06:10:18;14.93;;;10.95;;
52035;SDS011;38046;49.448;32.074;2022-12-18T06:12:44;15.07;;;11.10;;
52035;SDS011;38046;49.448;32.074;2022-12-18T06:15:10;15.90;;;11.45;;
52035;SDS011;38046;49.448;32.074;2022-12-18T06:17:35;12.60;;;9.95;;
52035;SDS011;38046;49.448;32.074;2022-12-18T06:20:02;13.95;;;10.18;;
52035;SDS011;38046;49.448;32.074;2022-12-18T06:22:30;13.32;;;10.27;;
52035;SDS011;38046;49.448;32.074;2022-12-18T06:24:56;15.80;;;10.55;;
52035;SDS011;38046;49.448;32.074;2022-12-18T06:27:22;14.23;;;10.20;;
52035;SDS011;38046;49.448;32.074;2022-12-18T06:29:48;12.90;;;9.32;;
52035;SDS011;38046;49.448;32.074;2022-12-18T06:32:14;13.40;;;8.95;;
52035;SDS011;38046;49.448;32.074;2022-12-18T06:34:39;12.38;;;9.07;;
52035;SDS011;38046;49.448;32.074;2022-12-18T06:37:05;13.15;;;9.38;;
52035;SDS011;38046;49.448;32.074;2022-12-18T06:39:31;12.65;;;9.43;;
52035;SDS011;38046;49.448;32.074;2022-12-18T06:41:56;13.05;;;9.68;;
52035;SDS011;38046;49.448;32.074;2022-12-18T06:44:22;11.23;;;9.10;;
52035;SDS011;38046;49.448;32.074;2022-12-18T06:46:48;13.35;;;9.98;;
52035;SDS011;38046;49.448;32.074;2022-12-18T06:49:13;11.80;;;9.52;;
52035;SDS011;38046;49.448;32.074;2022-12-18T06:51:41;13.32;;;9.93;;
52035;SDS011;38046;49.448;32.074;2022-12-18T06:54:06;12.10;;;9.45;;
52035;SDS011;38046;49.448;32.074;2022-12-18T06:56:32;14.38;;;9.27;;
52035;SDS011;38046;49.448;32.074;2022-12-18T06:58:58;12.70;;;10.18;;
52035;SDS011;38046;49.448;32.074;2022-12-18T07:01:24;12.48;;;9.80;;
52035;SDS011;38046;49.448;32.074;2022-12-18T07:03:53;12.43;;;9.95;;
52035;SDS011;38046;49.448;32.074;2022-12-18T07:06:21;12.88;;;9.43;;
52035;SDS011;38046;49.448;32.074;2022-12-18T07:08:48;14.73;;;9.95;;
52035;SDS011;38046;49.448;32.074;2022-12-18T07:11:15;14.27;;;10.60;;
52035;SDS011;38046;49.448;32.074;2022-12-18T07:13:41;13.68;;;10.63;;
52035;SDS011;38046;49.448;32.074;2022-12-18T07:16:08;15.50;;;10.48;;
52035;SDS011;38046;49.448;32.074;2022-12-18T07:18:36;13.68;;;10.38;;
52035;SDS011;38046;49.448;32.074;2022-12-18T07:21:05;15.40;;;10.60;;
52035;SDS011;38046;49.448;32.074;2022-12-18T07:23:33;12.93;;;9.85;;
52035;SDS011;38046;49.448;32.074;2022-12-18T07:26:00;12.90;;;9.60;;
52035;SDS011;38046;49.448;32.074;2022-12-18T07:28:30;12.55;;;9.57;;
52035;SDS011;38046;49.448;32.074;2022-12-18T07:30:56;13.10;;;10.02;;
52035;SDS011;38046;49.448;32.074;2022-12-18T07:33:22;13.40;;;9.60;;
52035;SDS011;38046;49.448;32.074;2022-12-18T07:35:47;14.30;;;10.85;;
52035;SDS011;38046;49.448;32.074;2022-12-18T07:38:13;14.20;;;10.32;;
52035;SDS011;38046;49.448;32.074;2022-12-18T07:40:38;13.20;;;9.70;;
52035;SDS011;38046;49.448;32.074;2022-12-18T07:43:04;11.88;;;8.50;;
52035;SDS011;38046;49.448;32.074;2022-12-18T07:45:30;14.38;;;9.63;;
52035;SDS011;38046;49.448;32.074;2022-12-18T07:47:55;13.70;;;9.10;;
52035;SDS011;38046;49.448;32.074;2022-12-18T07:50:21;10.52;;;8.15;;
52035;SDS011;38046;49.448;32.074;2022-12-18T07:52:47;15.02;;;10.48;;
52035;SDS011;38046;49.448;32.074;2022-12-18T07:55:12;13.32;;;9.23;;
52035;SDS011;38046;49.448;32.074;2022-12-18T07:57:38;14.20;;;10.40;;
52035;SDS011;38046;49.448;32.074;2022-12-18T08:00:04;12.90;;;10.00;;
52035;SDS011;38046;49.448;32.074;2022-12-18T08:02:30;12.77;;;8.88;;
52035;SDS011;38046;49.448;32.074;2022-12-18T08:04:56;12.23;;;9.27;;
52035;SDS011;38046;49.448;32.074;2022-12-18T08:07:23;12.52;;;9.40;;
52035;SDS011;38046;49.448;32.074;2022-12-18T08:09:48;13.07;;;9.80;;
52035;SDS011;38046;49.448;32.074;2022-12-18T08:12:14;13.35;;;10.05;;
52035;SDS011;38046;49.448;32.074;2022-12-18T08:14:39;12.10;;;8.75;;
52035;SDS011;38046;49.448;32.074;2022-12-18T08:17:05;11.45;;;8.80;;
52035;SDS011;38046;49.448;32.074;2022-12-18T08:19:31;11.57;;;8.15;;
52035;SDS011;38046;49.448;32.074;2022-12-18T08:21:56;13.18;;;9.52;;
52035;SDS011;38046;49.448;32.074;2022-12-18T08:24:22;11.48;;;8.90;;
52035;SDS011;38046;49.448;32.074;2022-12-18T08:26:47;11.60;;;8.88;;
52035;SDS011;38046;49.448;32.074;2022-12-18T08:29:13;10.75;;;8.43;;
52035;SDS011;38046;49.448;32.074;2022-12-18T08:31:39;10.77;;;9.20;;
52035;SDS011;38046;49.448;32.074;2022-12-18T08:34:04;17.73;;;12.60;;
52035;SDS011;38046;49.448;32.074;2022-12-18T08:36:30;15.13;;;11.23;;
52035;SDS011;38046;49.448;32.074;2022-12-18T08:38:56;13.50;;;10.35;;
52035;SDS011;38046;49.448;32.074;2022-12-18T08:41:22;13.15;;;9.65;;
52035;SDS011;38046;49.448;32.074;2022-12-18T08:43:48;13.18;;;9.57;;
52035;SDS011;38046;49.448;32.074;2022-12-18T08:46:37;13.93;;;10.27;;
52035;SDS011;38046;49.448;32.074;2022-12-18T08:49:04;12.80;;;9.98;;
52035;SDS011;38046;49.448;32.074;2022-12-18T08:51:30;11.90;;;9.20;;
52035;SDS011;38046;49.448;32.074;2022-12-18T08:53:56;12.38;;;9.05;;
52035;SDS011;38046;49.448;32.074;2022-12-18T08:56:22;11.80;;;8.80;;
52035;SDS011;38046;49.448;32.074;2022-12-18T08:58:50;12.95;;;9.60;;
52035;SDS011;38046;49.448;32.074;2022-12-18T09:01:19;12.10;;;8.88;;
52035;SDS011;38046;49.448;32.074;2022-12-18T09:03:45;12.73;;;9.45;;
52035;SDS011;38046;49.448;32.074;2022-12-18T09:06:13;13.77;;;9.80;;
52035;SDS011;38046;49.448;32.074;2022-12-18T09:08:40;11.95;;;9.07;;
52035;SDS011;38046;49.448;32.074;2022-12-18T09:11:14;11.95;;;8.85;;
52035;SDS011;38046;49.448;32.074;2022-12-18T09:13:47;12.73;;;8.85;;
52035;SDS011;38046;49.448;32.074;2022-12-18T09:16:13;11.00;;;8.65;;
52035;SDS011;38046;49.448;32.074;2022-12-18T09:18:38;9.80;;;8.15;;
52035;SDS011;38046;49.448;32.074;2022-12-18T09:21:08;10.73;;;8.68;;
52035;SDS011;38046;49.448;32.074;2022-12-18T09:23:35;12.15;;;9.80;;
52035;SDS011;38046;49.448;32.074;2022-12-18T09:26:01;11.50;;;9.07;;
52035;SDS011;38046;49.448;32.074;2022-12-18T09:28:26;9.48;;;8.07;;
52035;SDS011;38046;49.448;32.074;2022-12-18T09:30:52;10.38;;;8.00;;
52035;SDS011;38046;49.448;32.074;2022-12-18T09:33:18;11.75;;;8.65;;
52035;SDS011;38046;49.448;32.074;2022-12-18T09:35:44;10.82;;;8.15;;
52035;SDS011;38046;49.448;32.074;2022-12-18T09:38:14;13.05;;;8.93;;
52035;SDS011;38046;49.448;32.074;2022-12-18T09:40:44;11.05;;;8.77;;
52035;SDS011;38046;49.448;32.074;2022-12-18T09:43:16;10.05;;;8.07;;
52035;SDS011;38046;49.448;32.074;2022-12-18T09:45:46;9.52;;;8.40;;
52035;SDS011;38046;49.448;32.074;2022-12-18T09:48:21;11.30;;;8.05;;
52035;SDS011;38046;49.448;32.074;2022-12-18T09:50:51;11.15;;;8.32;;
52035;SDS011;38046;49.448;32.074;2022-12-18T09:53:25;10.82;;;7.95;;
52035;SDS011;38046;49.448;32.074;2022-12-18T09:55:55;10.13;;;8.35;;
52035;SDS011;38046;49.448;32.074;2022-12-18T09:58:27;10.15;;;8.00;;
52035;SDS011;38046;49.448;32.074;2022-12-18T10:01:00;10.95;;;7.65;;
52035;SDS011;38046;49.448;32.074;2022-12-18T10:26:44;9.45;;;7.55;;
52035;SDS011;38046;49.448;32.074;2022-12-18T10:29:11;12.45;;;7.93;;
52035;SDS011;38046;49.448;32.074;2022-12-18T10:31:38;10.23;;;7.78;;
52035;SDS011;38046;49.448;32.074;2022-12-18T10:34:04;10.07;;;8.20;;
52035;SDS011;38046;49.448;32.074;2022-12-18T10:36:34;11.15;;;8.50;;
52035;SDS011;38046;49.448;32.074;2022-12-18T10:39:22;10.88;;;8.13;;
52035;SDS011;38046;49.448;32.074;2022-12-18T10:41:51;10.40;;;8.02;;
52035;SDS011;38046;49.448;32.074;2022-12-18T10:44:18;9.65;;;7.95;;
52035;SDS011;38046;49.448;32.074;2022-12-18T10:46:49;9.65;;;7.82;;
52035;SDS011;38046;49.448;32.074;2022-12-18T10:49:19;10.40;;;7.82;;
52035;SDS011;38046;49.448;32.074;2022-12-18T10:51:49;9.57;;;7.95;;
52035;SDS011;38046;49.448;32.074;2022-12-18T10:54:20;9.27;;;8.02;;
52035;SDS011;38046;49.448;32.074;2022-12-18T10:56:48;9.57;;;7.63;;
52035;SDS011;38046;49.448;32.074;2022-12-18T10:59:15;9.75;;;8.02;;
52035;SDS011;38046;49.448;32.074;2022-12-18T11:01:55;10.18;;;8.30;;
52035;SDS011;38046;49.448;32.074;2022-12-18T11:04:23;9.27;;;7.80;;
52035;SDS011;38046;49.448;32.074;2022-12-18T11:09:25;11.30;;;8.10;;
52035;SDS011;38046;49.448;32.074;2022-12-18T11:11:53;10.13;;;8.40;;
52035;SDS011;38046;49.448;32.074;2022-12-18T11:14:22;9.57;;;7.80;;
52035;SDS011;38046;49.448;32.074;2022-12-18T11:16:59;11.82;;;8.48;;
52035;SDS011;38046;49.448;32.074;2022-12-18T11:19:30;10.15;;;7.65;;
52035;SDS011;38046;49.448;32.074;2022-12-18T11:21:56;10.27;;;8.20;;
52035;SDS011;38046;49.448;32.074;2022-12-18T11:24:35;8.95;;;6.97;;
52035;SDS011;38046;49.448;32.074;2022-12-18T11:27:04;9.05;;;6.63;;
52035;SDS011;38046;49.448;32.074;2022-12-18T11:29:35;9.95;;;7.07;;
52035;SDS011;38046;49.448;32.074;2022-12-18T11:32:23;7.60;;;6.35;;
52035;SDS011;38046;49.448;32.074;2022-12-18T11:38:00;9.25;;;6.82;;
52035;SDS011;38046;49.448;32.074;2022-12-18T11:40:38;10.13;;;7.15;;
52035;SDS011;38046;49.448;32.074;2022-12-18T11:43:10;7.95;;;6.65;;
52035;SDS011;38046;49.448;32.074;2022-12-18T11:48:40;9.48;;;7.10;;
52035;SDS011;38046;49.448;32.074;2022-12-18T11:51:16;9.63;;;8.10;;
52035;SDS011;38046;49.448;32.074;2022-12-18T11:53:51;10.50;;;8.00;;
52035;SDS011;38046;49.448;32.074;2022-12-18T12:06:22;10.30;;;8.13;;
52035;SDS011;38046;49.448;32.074;2022-12-18T12:11:56;9.23;;;7.45;;
52035;SDS011;38046;49.448;32.074;2022-12-18T12:22:41;10.13;;;7.47;;
52035;SDS011;38046;49.448;32.074;2022-12-18T12:30:41;11.20;;;8.60;;
52035;SDS011;38046;49.448;32.074;2022-12-18T12:38:46;10.65;;;7.68;;
52035;SDS011;38046;49.448;32.074;2022-12-18T12:41:24;10.93;;;8.75;;
52035;SDS011;38046;49.448;32.074;2022-12-18T12:44:45;10.30;;;8.35;;
52035;SDS011;38046;49.448;32.074;2022-12-18T12:47:20;10.38;;;7.68;;
52035;SDS011;38046;49.448;32.074;2022-12-18T12:49:52;11.18;;;8.13;;
52035;SDS011;38046;49.448;32.074;2022-12-18T12:54:54;11.02;;;8.00;;
52035;SDS011;38046;49.448;32.074;2022-12-18T12:57:22;12.52;;;9.02;;
52035;SDS011;38046;49.448;32.074;2022-12-18T13:02:35;10.25;;;7.72;;
52035;SDS011;38046;49.448;32.074;2022-12-18T13:08:05;9.77;;;7.43;;
52035;SDS011;38046;49.448;32.074;2022-12-18T13:10:39;10.30;;;8.32;;
52035;SDS011;38046;49.448;32.074;2022-12-18T13:13:07;10.20;;;7.20;;
52035;SDS011;38046;49.448;32.074;2022-12-18T13:15:47;9.27;;;7.28;;
52035;SDS011;38046;49.448;32.074;2022-12-18T13:18:31;9.98;;;7.35;;
52035;SDS011;38046;49.448;32.074;2022-12-18T13:25:56;10.13;;;7.18;;
52035;SDS011;38046;49.448;32.074;2022-12-18T13:31:11;10.68;;;8.40;;
52035;SDS011;38046;49.448;32.074;2022-12-18T13:34:30;11.60;;;8.77;;
52035;SDS011;38046;49.448;32.074;2022-12-18T13:36:50;11.05;;;8.57;;
52035;SDS011;38046;49.448;32.074;2022-12-18T13:41:46;11.88;;;8.50;;
52035;SDS011;38046;49.448;32.074;2022-12-18T13:47:00;8.43;;;7.25;;
52035;SDS011;38046;49.448;32.074;2022-12-18T13:49:41;9.52;;;7.38;;
52035;SDS011;38046;49.448;32.074;2022-12-18T13:52:19;10.05;;;7.93;;
52035;SDS011;38046;49.448;32.074;2022-12-18T13:54:50;9.05;;;7.60;;
52035;SDS011;38046;49.448;32.074;2022-12-18T13:57:28;10.35;;;7.68;;
52035;SDS011;38046;49.448;32.074;2022-12-18T14:02:44;9.27;;;7.32;;
52035;SDS011;38046;49.448;32.074;2022-12-18T14:05:21;8.20;;;7.13;;
52035;SDS011;38046;49.448;32.074;2022-12-18T14:07:48;8.35;;;6.97;;
52035;SDS011;38046;49.448;32.074;2022-12-18T14:10:15;8.30;;;6.55;;
52035;SDS011;38046;49.448;32.074;2022-12-18T14:12:44;8.90;;;6.57;;
52035;SDS011;38046;49.448;32.074;2022-12-18T14:15:43;9.02;;;6.43;;
52035;SDS011;38046;49.448;32.074;2022-12-18T14:18:25;7.72;;;6.00;;
52035;SDS011;38046;49.448;32.074;2022-12-18T14:20:57;9.40;;;6.65;;
52035;SDS011;38046;49.448;32.074;2022-12-18T14:23:25;9.02;;;7.15;;
52035;SDS011;38046;49.448;32.074;2022-12-18T14:26:19;9.82;;;6.63;;
52035;SDS011;38046;49.448;32.074;2022-12-18T14:28:47;7.97;;;6.10;;
52035;SDS011;38046;49.448;32.074;2022-12-18T14:31:19;9.18;;;7.28;;
52035;SDS011;38046;49.448;32.074;2022-12-18T14:33:50;9.40;;;7.05;;
52035;SDS011;38046;49.448;32.074;2022-12-18T14:36:17;8.95;;;7.07;;
52035;SDS011;38046;49.448;32.074;2022-12-18T14:38:47;9.45;;;7.68;;
52035;SDS011;38046;49.448;32.074;2022-12-18T14:41:15;9.68;;;6.82;;
52035;SDS011;38046;49.448;32.074;2022-12-18T14:43:43;8.90;;;7.18;;
52035;SDS011;38046;49.448;32.074;2022-12-18T14:48:57;7.47;;;6.30;;
52035;SDS011;38046;49.448;32.074;2022-12-18T14:51:41;7.70;;;5.80;;
52035;SDS011;38046;49.448;32.074;2022-12-18T14:54:19;8.48;;;6.43;;
52035;SDS011;38046;49.448;32.074;2022-12-18T14:56:47;8.63;;;6.35;;
52035;SDS011;38046;49.448;32.074;2022-12-18T14:59:24;7.13;;;6.00;;
52035;SDS011;38046;49.448;32.074;2022-12-18T15:02:02;8.10;;;6.43;;
52035;SDS011;38046;49.448;32.074;2022-12-18T15:04:33;8.13;;;6.10;;
52035;SDS011;38046;49.448;32.074;2022-12-18T15:12:01;9.02;;;6.43;;
52035;SDS011;38046;49.448;32.074;2022-12-18T15:17:03;8.50;;;6.65;;
52035;SDS011;38046;49.448;32.074;2022-12-18T15:19:42;7.68;;;6.47;;
52035;SDS011;38046;49.448;32.074;2022-12-18T15:22:32;8.05;;;6.30;;
52035;SDS011;38046;49.448;32.074;2022-12-18T15:24:58;8.35;;;6.90;;
52035;SDS011;38046;49.448;32.074;2022-12-18T15:27:25;7.22;;;6.53;;
52035;SDS011;38046;49.448;32.074;2022-12-18T15:30:02;7.30;;;5.95;;
52035;SDS011;38046;49.448;32.074;2022-12-18T15:32:34;6.93;;;5.85;;
52035;SDS011;38046;49.448;32.074;2022-12-18T15:37:46;7.80;;;6.07;;
52035;SDS011;38046;49.448;32.074;2022-12-18T15:40:13;7.60;;;6.22;;
52035;SDS011;38046;49.448;32.074;2022-12-18T15:42:40;9.35;;;6.90;;
52035;SDS011;38046;49.448;32.074;2022-12-18T15:45:25;8.05;;;6.03;;
52035;SDS011;38046;49.448;32.074;2022-12-18T15:47:50;7.80;;;6.10;;
52035;SDS011;38046;49.448;32.074;2022-12-18T15:50:16;6.38;;;5.28;;
52035;SDS011;38046;49.448;32.074;2022-12-18T15:52:43;8.50;;;6.05;;
52035;SDS011;38046;49.448;32.074;2022-12-18T15:55:14;7.47;;;6.30;;
52035;SDS011;38046;49.448;32.074;2022-12-18T15:58:07;8.93;;;6.47;;
52035;SDS011;38046;49.448;32.074;2022-12-18T16:00:34;7.88;;;5.97;;
52035;SDS011;38046;49.448;32.074;2022-12-18T16:49:50;5.97;;;4.68;;
52035;SDS011;38046;49.448;32.074;2022-12-18T16:52:17;6.07;;;4.80;;
52035;SDS011;38046;49.448;32.074;2022-12-18T16:54:43;7.80;;;4.95;;
52035;SDS011;38046;49.448;32.074;2022-12-18T16:57:10;6.30;;;4.93;;
52035;SDS011;38046;49.448;32.074;2022-12-18T16:59:38;8.38;;;5.28;;
52035;SDS011;38046;49.448;32.074;2022-12-18T17:02:04;6.68;;;5.53;;
52035;SDS011;38046;49.448;32.074;2022-12-18T17:04:29;5.80;;;4.93;;
52035;SDS011;38046;49.448;32.074;2022-12-18T17:06:55;6.43;;;5.28;;
52035;SDS011;38046;49.448;32.074;2022-12-18T17:09:21;5.93;;;5.10;;
52035;SDS011;38046;49.448;32.074;2022-12-18T17:11:50;6.72;;;5.35;;
52035;SDS011;38046;49.448;32.074;2022-12-18T17:14:17;7.88;;;6.00;;
52035;SDS011;38046;49.448;32.074;2022-12-18T17:16:44;8.00;;;5.65;;
52035;SDS011;38046;49.448;32.074;2022-12-18T17:19:11;8.38;;;5.75;;
52035;SDS011;38046;49.448;32.074;2022-12-18T17:21:37;7.20;;;5.50;;
52035;SDS011;38046;49.448;32.074;2022-12-18T17:24:03;6.68;;;5.72;;
52035;SDS011;38046;49.448;32.074;2022-12-18T17:26:29;7.05;;;5.32;;
52035;SDS011;38046;49.448;32.074;2022-12-18T17:28:56;6.13;;;5.45;;
52035;SDS011;38046;49.448;32.074;2022-12-18T17:31:22;6.15;;;5.30;;
52035;SDS011;38046;49.448;32.074;2022-12-18T17:33:50;7.00;;;5.70;;
52035;SDS011;38046;49.448;32.074;2022-12-18T17:36:16;8.10;;;6.05;;
52035;SDS011;38046;49.448;32.074;2022-12-18T17:38:42;9.05;;;6.13;;
52035;SDS011;38046;49.448;32.074;2022-12-18T17:41:13;7.53;;;5.05;;
52035;SDS011;38046;49.448;32.074;2022-12-18T17:43:39;7.85;;;5.32;;
52035;SDS011;38046;49.448;32.074;2022-12-18T17:46:10;7.15;;;5.60;;
52035;SDS011;38046;49.448;32.074;2022-12-18T17:48:39;7.03;;;5.18;;
52035;SDS011;38046;49.448;32.074;2022-12-18T17:51:06;7.88;;;4.97;;
52035;SDS011;38046;49.448;32.074;2022-12-18T17:53:33;6.78;;;5.53;;
52035;SDS011;38046;49.448;32.074;2022-12-18T17:55:59;7.88;;;4.97;;
52035;SDS011;38046;49.448;32.074;2022-12-18T17:58:26;7.28;;;5.38;;
52035;SDS011;38046;49.448;32.074;2022-12-18T18:07:20;5.97;;;5.22;;
52035;SDS011;38046;49.448;32.074;2022-12-18T18:09:46;6.13;;;4.90;;
52035;SDS011;38046;49.448;32.074;2022-12-18T18:12:12;6.15;;;5.30;;
52035;SDS011;38046;49.448;32.074;2022-12-18T18:14:56;6.82;;;5.22;;
52035;SDS011;38046;49.448;32.074;2022-12-18T18:17:21;6.45;;;5.00;;
52035;SDS011;38046;49.448;32.074;2022-12-18T18:19:47;5.63;;;4.65;;
52035;SDS011;38046;49.448;32.074;2022-12-18T18:22:13;7.57;;;5.00;;
52035;SDS011;38046;49.448;32.074;2022-12-18T18:24:38;7.32;;;5.55;;
52035;SDS011;38046;49.448;32.074;2022-12-18T18:27:04;7.32;;;5.53;;
52035;SDS011;38046;49.448;32.074;2022-12-18T18:29:30;6.82;;;5.30;;
52035;SDS011;38046;49.448;32.074;2022-12-18T18:31:55;7.75;;;6.00;;